createdAt,value
2022-10-06T00:00:43.354Z,4.30
2022-10-06T00:04:38.620Z,2.90
2022-10-06T00:08:15.261Z,4.30
2022-10-06T00:11:52.413Z,4.60
2022-10-06T00:15:32.485Z,4.50
2022-10-06T00:19:08.349Z,6.00
2022-10-06T00:22:48.773Z,4.50
2022-10-06T00:26:25.419Z,5.70
2022-10-06T00:30:01.341Z,4.60
2022-10-06T00:33:38.279Z,4.30
2022-10-06T00:37:16.051Z,3.20
2022-10-06T00:40:53.095Z,5.90
2022-10-06T00:44:29.021Z,8.10
2022-10-06T00:48:29.750Z,3.00
2022-10-06T00:52:10.460Z,6.40
2022-10-06T00:55:47.588Z,4.60
2022-10-06T00:59:23.566Z,6.70
2022-10-06T01:03:12.644Z,5.40
2022-10-06T01:06:54.836Z,3.20
2022-10-06T01:10:31.146Z,8.40
2022-10-06T01:14:07.872Z,4.30
2022-10-06T01:17:54.315Z,6.30
2022-10-06T01:21:38.659Z,7.20
2022-10-06T01:25:17.653Z,6.90
2022-10-06T01:28:53.569Z,3.30
2022-10-06T01:32:36.347Z,6.10
2022-10-06T01:36:14.211Z,5.20
2022-10-06T01:39:51.062Z,4.10
2022-10-06T01:43:28.930Z,4.10
2022-10-06T01:47:06.955Z,5.10
2022-10-06T01:50:43.121Z,7.70
2022-10-06T01:54:20.170Z,8.50
2022-10-06T01:57:56.398Z,3.60
2022-10-06T02:01:33.403Z,9.50
2022-10-06T02:05:11.112Z,6.30
2022-10-06T02:08:47.752Z,4.80
2022-10-06T02:12:24.797Z,4.10
2022-10-06T02:16:01.478Z,4.80
2022-10-06T02:19:38.792Z,5.20
2022-10-06T02:23:14.822Z,6.40
2022-10-06T02:26:51.668Z,4.30
2022-10-06T02:30:28.613Z,10.20
2022-10-06T02:34:05.144Z,8.70
2022-10-06T02:37:41.888Z,5.70
2022-10-06T02:41:18.630Z,5.30
2022-10-06T02:44:55.588Z,4.20
2022-10-06T02:48:32.918Z,5.90
2022-10-06T02:52:08.851Z,4.80
2022-10-06T02:55:46.310Z,6.40
2022-10-06T02:59:23.464Z,4.70
2022-10-06T03:03:00.369Z,7.90
2022-10-06T03:06:36.738Z,4.90
2022-10-06T03:10:13.380Z,3.30
2022-10-06T03:13:51.483Z,4.00
2022-10-06T03:17:28.191Z,9.50
2022-10-06T03:21:04.525Z,5.20
2022-10-06T03:24:40.753Z,6.50
2022-10-06T03:28:17.958Z,6.00
2022-10-06T03:31:54.753Z,7.50
2022-10-06T03:35:31.286Z,6.20
2022-10-06T03:39:08.750Z,7.70
2022-10-06T03:42:44.975Z,4.60
2022-10-06T03:46:24.887Z,4.30
2022-10-06T03:50:02.855Z,7.50
2022-10-06T03:53:40.725Z,6.20
2022-10-06T03:57:17.363Z,4.60
2022-10-06T04:01:14.328Z,5.40
2022-10-06T04:04:50.085Z,5.80
2022-10-06T04:08:29.379Z,4.40
2022-10-06T04:12:06.124Z,8.20
2022-10-06T04:15:43.172Z,5.40
2022-10-06T04:19:19.915Z,5.60
2022-10-06T04:22:56.353Z,8.00
2022-10-06T04:26:36.459Z,7.50
2022-10-06T04:30:12.396Z,6.20
2022-10-06T04:33:59.280Z,8.50
2022-10-06T04:37:36.931Z,6.80
2022-10-06T04:41:15.713Z,6.00
2022-10-06T04:44:51.437Z,6.50
2022-10-06T04:48:31.638Z,7.00
2022-10-06T04:52:07.988Z,4.10
2022-10-06T04:55:45.957Z,5.80
2022-10-06T04:59:22.085Z,6.00
2022-10-06T05:02:58.619Z,6.50
2022-10-06T05:06:40.368Z,7.20
2022-10-06T05:10:16.093Z,4.80
2022-10-06T05:13:54.731Z,8.60
2022-10-06T05:17:50.355Z,6.50
2022-10-06T05:21:13.938Z,6.80
2022-10-06T05:24:49.722Z,6.80
2022-10-06T05:28:29.176Z,4.90
2022-10-06T05:32:07.545Z,8.40
2022-10-06T05:35:54.483Z,8.50
2022-10-06T05:39:31.210Z,6.00
2022-10-06T05:43:06.970Z,7.00
2022-10-06T05:46:43.876Z,5.60
2022-10-06T05:50:20.772Z,14.40
2022-10-06T05:54:02.267Z,5.60
2022-10-06T05:57:39.724Z,5.00
2022-10-06T06:01:18.169Z,7.10
2022-10-06T06:04:54.537Z,6.30
2022-10-06T06:08:31.545Z,11.30
2022-10-06T06:12:08.948Z,7.20
2022-10-06T06:15:44.968Z,9.80
2022-10-06T06:19:23.969Z,7.10
2022-10-06T06:23:02.896Z,9.30
2022-10-06T06:26:40.409Z,7.30
2022-10-06T06:30:17.461Z,10.10
2022-10-06T06:33:59.318Z,7.70
2022-10-06T06:37:35.040Z,7.40
2022-10-06T06:41:18.436Z,5.60
2022-10-06T06:44:55.581Z,8.00
2022-10-06T06:48:33.184Z,8.90
2022-10-06T06:52:09.289Z,4.40
2022-10-06T06:55:50.215Z,14.40
2022-10-06T06:59:26.844Z,10.10
2022-10-06T07:03:04.743Z,9.50
2022-10-06T07:06:42.970Z,12.30
2022-10-06T07:10:18.717Z,10.40
2022-10-06T07:13:59.367Z,9.10
2022-10-06T07:17:35.668Z,14.90
2022-10-06T07:21:13.431Z,10.40
2022-10-06T07:24:49.153Z,14.90
2022-10-06T07:28:26.878Z,11.70
2022-10-06T07:32:06.065Z,15.90
2022-10-06T07:35:42.341Z,13.20
2022-10-06T07:39:19.192Z,12.60
2022-10-06T07:42:56.746Z,13.10
2022-10-06T07:46:32.565Z,15.40
2022-10-06T07:50:10.538Z,8.30
2022-10-06T07:53:49.253Z,13.80
2022-10-06T07:57:25.357Z,7.00
2022-10-06T08:01:10.788Z,14.40
2022-10-06T08:04:47.428Z,14.00
2022-10-06T08:08:25.705Z,11.40
2022-10-06T08:12:01.883Z,11.30
2022-10-06T08:15:38.758Z,14.50
2022-10-06T08:19:15.228Z,14.10
2022-10-06T08:22:52.455Z,12.10
2022-10-06T08:26:29.985Z,14.30
2022-10-06T08:30:07.913Z,9.40
2022-10-06T08:33:45.866Z,12.90
2022-10-06T08:37:23.934Z,11.70
2022-10-06T08:41:00.991Z,9.00
2022-10-06T08:44:48.573Z,8.20
2022-10-06T08:48:24.803Z,8.10
2022-10-06T08:52:26.990Z,5.00
2022-10-06T08:56:13.140Z,7.70
2022-10-06T08:59:51.527Z,8.90
2022-10-06T09:03:30.754Z,8.80
2022-10-06T09:07:22.849Z,3.50
2022-10-06T09:11:20.720Z,7.00
2022-10-06T09:15:15.628Z,6.80
2022-10-06T09:19:08.773Z,4.90
2022-10-06T09:22:48.404Z,7.40
2022-10-06T09:26:32.415Z,6.80
2022-10-06T09:30:12.881Z,8.30
2022-10-06T09:33:53.734Z,5.70
2022-10-06T09:37:29.472Z,11.90
2022-10-06T09:41:07.623Z,7.10
2022-10-06T09:44:52.926Z,7.10
2022-10-06T09:48:29.672Z,5.30
2022-10-06T09:52:11.652Z,4.70
2022-10-06T09:55:51.468Z,6.30
2022-10-06T09:59:39.852Z,3.20
2022-10-06T10:03:16.934Z,4.60
2022-10-06T10:06:53.668Z,11.60
2022-10-06T10:10:31.194Z,5.10
2022-10-06T10:14:19.105Z,7.00
2022-10-06T10:17:59.094Z,6.30
2022-10-06T10:21:36.181Z,7.90
2022-10-06T10:25:50.785Z,7.30
2022-10-06T10:29:47.724Z,4.30
2022-10-06T10:33:24.836Z,3.40
2022-10-06T10:37:17.850Z,6.10
2022-10-06T10:41:03.865Z,8.00
2022-10-06T10:44:46.451Z,6.70
2022-10-06T10:48:55.426Z,16.10
2022-10-06T10:52:40.264Z,20.40
2022-10-06T10:56:19.936Z,17.40
2022-10-06T11:00:15.909Z,10.40
2022-10-06T11:03:33.180Z,14.80
2022-10-06T11:07:25.321Z,7.60
2022-10-06T11:11:07.116Z,8.20
2022-10-06T11:15:07.195Z,16.20
2022-10-06T11:18:46.389Z,11.90
2022-10-06T11:22:43.920Z,13.10
2022-10-06T11:26:29.239Z,9.90
2022-10-06T11:30:21.761Z,9.00
2022-10-06T11:34:03.887Z,8.30
2022-10-06T11:37:49.462Z,9.00
2022-10-06T11:41:38.775Z,5.10
2022-10-06T11:45:21.444Z,3.90
2022-10-06T11:49:28.613Z,10.50
2022-10-06T11:53:05.837Z,7.80
2022-10-06T11:56:41.965Z,11.40
2022-10-06T12:00:19.338Z,7.50
2022-10-06T12:04:19.569Z,6.50
2022-10-06T12:08:02.382Z,6.20
2022-10-06T12:11:38.009Z,2.90
2022-10-06T12:19:26.784Z,4.50
2022-10-06T12:23:09.472Z,7.30
2022-10-06T12:26:54.655Z,3.40
2022-10-06T12:31:01.122Z,5.20
2022-10-06T12:34:40.313Z,4.00
2022-10-06T12:38:35.884Z,7.00
2022-10-06T12:42:27.892Z,5.50
2022-10-06T12:46:13.231Z,4.30
2022-10-06T12:49:54.251Z,3.80
2022-10-06T12:54:42.160Z,5.00
2022-10-06T12:58:28.958Z,6.40
2022-10-06T13:02:18.325Z,3.80
2022-10-06T13:05:58.512Z,4.30
2022-10-06T13:09:34.661Z,4.60
2022-10-06T13:13:24.606Z,4.70
2022-10-06T13:17:03.395Z,4.80
2022-10-06T13:20:53.774Z,5.90
2022-10-06T13:24:30.406Z,5.20
2022-10-06T13:28:24.161Z,5.00
2022-10-06T13:32:00.395Z,5.60
2022-10-06T13:35:38.716Z,4.40
2022-10-06T13:39:22.762Z,8.90
2022-10-06T13:43:02.126Z,4.80
2022-10-06T13:46:40.284Z,9.90
2022-10-06T13:50:19.921Z,5.60
2022-10-06T13:54:01.553Z,4.90
2022-10-06T13:57:47.814Z,6.00
2022-10-06T14:01:32.014Z,6.40
2022-10-06T14:05:24.410Z,6.50
2022-10-06T14:09:10.292Z,6.70
2022-10-06T14:12:47.389Z,8.60
2022-10-06T14:16:26.484Z,3.90
2022-10-06T14:20:02.932Z,6.90
2022-10-06T14:23:48.876Z,4.80
2022-10-06T14:27:25.826Z,7.80
2022-10-06T14:31:03.416Z,3.20
2022-10-06T14:34:40.488Z,4.30
2022-10-06T14:38:19.146Z,4.20
2022-10-06T14:41:55.793Z,2.50
2022-10-06T14:45:38.161Z,1.70
2022-10-06T14:49:20.689Z,4.30
2022-10-06T14:53:00.586Z,4.10
2022-10-06T14:56:38.816Z,3.10
2022-10-06T15:00:15.364Z,6.80
2022-10-06T15:04:17.203Z,4.00
2022-10-06T15:07:53.098Z,3.00
2022-10-06T15:11:30.889Z,4.30
2022-10-06T15:15:08.930Z,3.60
2022-10-06T15:18:52.283Z,3.10
2022-10-06T15:22:28.088Z,3.80
2022-10-06T15:26:08.992Z,2.60
2022-10-06T15:29:46.549Z,3.00
2022-10-06T15:33:29.190Z,3.10
2022-10-06T15:37:08.689Z,4.10
2022-10-06T15:40:46.075Z,3.40
2022-10-06T15:44:26.200Z,3.40
2022-10-06T15:48:11.824Z,5.50
2022-10-06T15:51:55.481Z,7.30
2022-10-06T15:55:32.589Z,3.50
2022-10-06T15:59:13.235Z,5.30
2022-10-06T16:02:53.018Z,4.20
2022-10-06T16:06:30.341Z,7.10
2022-10-06T16:10:09.480Z,5.10
2022-10-06T16:13:48.367Z,3.60
2022-10-06T16:17:24.907Z,4.50
2022-10-06T16:21:02.240Z,6.00
2022-10-06T16:24:41.465Z,2.30
2022-10-06T16:28:18.933Z,2.40
2022-10-06T16:31:57.730Z,3.00
2022-10-06T16:35:33.532Z,2.80
2022-10-06T16:39:15.689Z,4.90
2022-10-06T16:42:52.289Z,2.80
2022-10-06T16:46:31.499Z,6.50
2022-10-06T16:50:08.685Z,4.60
2022-10-06T16:53:48.417Z,3.60
2022-10-06T16:57:25.554Z,3.20
2022-10-06T17:01:02.282Z,2.70
2022-10-06T17:04:39.843Z,4.70
2022-10-06T17:08:22.321Z,4.20
2022-10-06T17:12:00.545Z,2.70
2022-10-06T17:15:36.613Z,4.10
2022-10-06T17:19:16.043Z,3.60
2022-10-06T17:22:52.841Z,4.50
2022-10-06T17:26:32.661Z,4.60
2022-10-06T17:30:10.657Z,4.80
2022-10-06T17:33:47.180Z,4.20
2022-10-06T17:37:24.372Z,3.30
2022-10-06T17:41:02.605Z,4.40
2022-10-06T17:44:39.555Z,4.20
2022-10-06T17:48:17.425Z,5.10
2022-10-06T17:51:55.513Z,5.30
2022-10-06T17:55:37.556Z,3.80
2022-10-06T17:59:25.757Z,5.00
2022-10-06T18:03:01.884Z,4.50
2022-10-06T18:06:39.749Z,5.50
2022-10-06T18:10:17.776Z,6.00
2022-10-06T18:13:55.206Z,3.20
2022-10-06T18:17:33.005Z,4.90
2022-10-06T18:21:09.742Z,3.40
2022-10-06T18:24:47.757Z,7.10
2022-10-06T18:28:28.146Z,3.50
2022-10-06T18:36:16.332Z,3.90
2022-10-06T18:39:52.259Z,3.70
2022-10-06T18:43:30.481Z,3.00
2022-10-06T18:47:07.545Z,2.50
2022-10-06T18:50:45.151Z,2.80
2022-10-06T18:54:25.549Z,2.90
2022-10-06T18:58:03.852Z,2.60
2022-10-06T19:01:42.875Z,4.30
2022-10-06T19:05:19.175Z,3.70
2022-10-06T19:08:59.073Z,2.50
2022-10-06T19:12:36.739Z,4.00
2022-10-06T19:16:14.061Z,5.50
2022-10-06T19:19:51.834Z,3.20
2022-10-06T19:23:29.038Z,6.30
2022-10-06T19:27:11.942Z,4.90
2022-10-06T19:31:05.990Z,6.60
2022-10-06T19:34:44.746Z,3.80
2022-10-06T19:38:22.611Z,3.30
2022-10-06T19:42:00.375Z,3.90
2022-10-06T19:45:36.836Z,7.10
2022-10-06T19:49:15.259Z,4.90
2022-10-06T19:52:51.574Z,4.20
2022-10-06T19:56:29.905Z,4.80
2022-10-06T20:00:10.271Z,2.80
2022-10-06T20:03:46.590Z,7.30
2022-10-06T20:07:25.295Z,3.50
2022-10-06T20:11:11.792Z,2.90
2022-10-06T20:14:49.389Z,5.20
2022-10-06T20:18:25.905Z,4.30
2022-10-06T20:22:03.831Z,2.60
2022-10-06T20:25:41.074Z,3.00
2022-10-06T20:29:24.739Z,5.20
2022-10-06T20:33:04.691Z,2.80
2022-10-06T20:36:42.174Z,3.10
2022-10-06T20:40:20.145Z,4.10
2022-10-06T20:43:58.035Z,2.70
2022-10-06T20:47:35.011Z,3.90
2022-10-06T20:51:13.333Z,2.70
2022-10-06T20:54:49.609Z,5.60
2022-10-06T20:58:29.565Z,3.80
2022-10-06T21:02:06.867Z,4.60
2022-10-06T21:05:50.245Z,2.80
2022-10-06T21:09:26.474Z,2.20
2022-10-06T21:13:04.531Z,4.10
2022-10-06T21:16:49.789Z,3.60
2022-10-06T21:20:26.288Z,3.20
2022-10-06T21:24:04.599Z,4.70
2022-10-06T21:27:41.123Z,6.70
2022-10-06T21:31:22.671Z,4.20
2022-10-06T21:34:59.057Z,4.50
2022-10-06T21:38:38.318Z,4.10
2022-10-06T21:42:15.190Z,2.50
2022-10-06T21:46:10.739Z,2.60
2022-10-06T21:49:47.986Z,3.70
2022-10-06T21:53:25.481Z,3.70
2022-10-06T21:57:03.882Z,3.90
2022-10-06T22:00:41.692Z,3.00
2022-10-06T22:04:19.053Z,3.90
2022-10-06T22:07:56.502Z,3.80
2022-10-06T22:11:38.233Z,3.60
2022-10-06T22:15:17.482Z,2.80
2022-10-06T22:18:53.793Z,2.50
2022-10-06T22:22:31.248Z,3.60
2022-10-06T22:26:11.416Z,3.00
2022-10-06T22:29:47.393Z,2.90
2022-10-06T22:33:25.258Z,2.70
2022-10-06T22:37:03.021Z,2.60
2022-10-06T22:40:41.628Z,2.50
2022-10-06T22:44:18.350Z,2.10
2022-10-06T22:47:56.725Z,3.60
2022-10-06T22:51:33.897Z,2.00
2022-10-06T22:55:12.602Z,2.00
2022-10-06T22:58:48.918Z,4.10
2022-10-06T23:02:27.478Z,1.50
2022-10-06T23:06:05.552Z,1.90
2022-10-06T23:09:42.758Z,3.50
2022-10-06T23:13:21.278Z,2.00
2022-10-06T23:16:57.431Z,3.10
2022-10-06T23:20:35.073Z,3.80
2022-10-06T23:24:13.555Z,3.70
2022-10-06T23:27:50.196Z,2.10
2022-10-06T23:31:29.557Z,5.70
2022-10-06T23:35:11.275Z,4.50
2022-10-06T23:38:47.704Z,2.90
2022-10-06T23:42:24.836Z,3.70
2022-10-06T23:46:03.717Z,3.40
2022-10-06T23:49:42.115Z,2.20
2022-10-06T23:53:18.149Z,2.70
2022-10-06T23:56:56.712Z,1.70
